sensor_id;sensor_type;location;lat;lon;timestamp;P1;durP1;ratioP1;P2;durP2;ratioP2
26600;SDS011;14241;49.260;10.496;2023-03-01T00:01:45;22.42;;;17.73;;
26600;SDS011;14241;49.260;10.496;2023-03-01T00:04:10;21.67;;;18.53;;
26600;SDS011;14241;49.260;10.496;2023-03-01T00:06:35;26.37;;;19.43;;
26600;SDS011;14241;49.260;10.496;2023-03-01T00:09:00;24.07;;;19.07;;
26600;SDS011;14241;49.260;10.496;2023-03-01T00:11:26;24.63;;;19.20;;
26600;SDS011;14241;49.260;10.496;2023-03-01T00:13:53;21.80;;;18.38;;
26600;SDS011;14241;49.260;10.496;2023-03-01T00:16:23;24.90;;;19.48;;
26600;SDS011;14241;49.260;10.496;2023-03-01T00:18:48;29.23;;;20.30;;
26600;SDS011;14241;49.260;10.496;2023-03-01T00:21:14;21.65;;;18.23;;
26600;SDS011;14241;49.260;10.496;2023-03-01T00:23:39;23.63;;;19.13;;
26600;SDS011;14241;49.260;10.496;2023-03-01T00:26:08;24.27;;;19.77;;
26600;SDS011;14241;49.260;10.496;2023-03-01T00:28:34;24.08;;;19.95;;
26600;SDS011;14241;49.260;10.496;2023-03-01T00:31:03;23.05;;;19.10;;
26600;SDS011;14241;49.260;10.496;2023-03-01T00:33:28;24.48;;;18.63;;
26600;SDS011;14241;49.260;10.496;2023-03-01T00:35:53;23.73;;;19.57;;
26600;SDS011;14241;49.260;10.496;2023-03-01T00:38:18;23.07;;;19.03;;
26600;SDS011;14241;49.260;10.496;2023-03-01T00:40:43;23.30;;;19.37;;
26600;SDS011;14241;49.260;10.496;2023-03-01T00:43:09;23.77;;;18.73;;
26600;SDS011;14241;49.260;10.496;2023-03-01T00:45:35;23.60;;;19.75;;
26600;SDS011;14241;49.260;10.496;2023-03-01T00:48:00;23.17;;;19.87;;
26600;SDS011;14241;49.260;10.496;2023-03-01T00:50:26;24.33;;;18.70;;
26600;SDS011;14241;49.260;10.496;2023-03-01T00:52:52;22.88;;;18.52;;
26600;SDS011;14241;49.260;10.496;2023-03-01T00:55:17;23.58;;;19.02;;
26600;SDS011;14241;49.260;10.496;2023-03-01T00:57:43;25.13;;;19.80;;
26600;SDS011;14241;49.260;10.496;2023-03-01T01:00:08;27.20;;;20.35;;
26600;SDS011;14241;49.260;10.496;2023-03-01T01:02:34;25.25;;;20.42;;
26600;SDS011;14241;49.260;10.496;2023-03-01T01:04:59;23.25;;;19.48;;
26600;SDS011;14241;49.260;10.496;2023-03-01T01:07:25;25.03;;;19.13;;
26600;SDS011;14241;49.260;10.496;2023-03-01T01:09:50;25.90;;;19.87;;
26600;SDS011;14241;49.260;10.496;2023-03-01T01:12:15;25.20;;;19.60;;
26600;SDS011;14241;49.260;10.496;2023-03-01T01:14:40;24.67;;;20.52;;
26600;SDS011;14241;49.260;10.496;2023-03-01T01:17:05;28.10;;;20.33;;
26600;SDS011;14241;49.260;10.496;2023-03-01T01:19:31;24.20;;;19.70;;
26600;SDS011;14241;49.260;10.496;2023-03-01T01:21:56;25.60;;;20.43;;
26600;SDS011;14241;49.260;10.496;2023-03-01T01:24:21;26.67;;;21.25;;
26600;SDS011;14241;49.260;10.496;2023-03-01T01:26:47;28.00;;;20.83;;
26600;SDS011;14241;49.260;10.496;2023-03-01T01:29:12;25.87;;;21.43;;
26600;SDS011;14241;49.260;10.496;2023-03-01T01:31:38;26.50;;;20.85;;
26600;SDS011;14241;49.260;10.496;2023-03-01T01:34:05;26.27;;;19.85;;
26600;SDS011;14241;49.260;10.496;2023-03-01T01:36:30;26.92;;;20.88;;
26600;SDS011;14241;49.260;10.496;2023-03-01T01:38:55;23.73;;;19.60;;
26600;SDS011;14241;49.260;10.496;2023-03-01T01:41:21;24.30;;;20.27;;
26600;SDS011;14241;49.260;10.496;2023-03-01T01:43:47;26.67;;;20.60;;
26600;SDS011;14241;49.260;10.496;2023-03-01T01:46:15;24.20;;;19.48;;
26600;SDS011;14241;49.260;10.496;2023-03-01T01:48:47;25.25;;;20.50;;
26600;SDS011;14241;49.260;10.496;2023-03-01T01:51:13;26.40;;;20.05;;
26600;SDS011;14241;49.260;10.496;2023-03-01T01:53:41;27.15;;;21.85;;
26600;SDS011;14241;49.260;10.496;2023-03-01T01:56:09;25.75;;;20.40;;
26600;SDS011;14241;49.260;10.496;2023-03-01T01:58:36;29.52;;;21.83;;
26600;SDS011;14241;49.260;10.496;2023-03-01T02:01:01;25.17;;;20.45;;
26600;SDS011;14241;49.260;10.496;2023-03-01T02:03:29;28.55;;;20.95;;
26600;SDS011;14241;49.260;10.496;2023-03-01T02:08:39;26.05;;;20.75;;
26600;SDS011;14241;49.260;10.496;2023-03-01T02:11:06;25.80;;;20.33;;
26600;SDS011;14241;49.260;10.496;2023-03-01T02:13:32;26.75;;;21.33;;
26600;SDS011;14241;49.260;10.496;2023-03-01T02:15:58;26.63;;;21.17;;
26600;SDS011;14241;49.260;10.496;2023-03-01T02:18:23;26.63;;;16.55;;
26600;SDS011;14241;49.260;10.496;2023-03-01T02:21:01;28.35;;;21.77;;
26600;SDS011;14241;49.260;10.496;2023-03-01T02:23:29;25.35;;;20.55;;
26600;SDS011;14241;49.260;10.496;2023-03-01T02:28:26;26.60;;;20.58;;
26600;SDS011;14241;49.260;10.496;2023-03-01T02:30:51;25.65;;;21.10;;
26600;SDS011;14241;49.260;10.496;2023-03-01T02:33:37;26.35;;;21.52;;
26600;SDS011;14241;49.260;10.496;2023-03-01T02:36:04;26.45;;;21.13;;
26600;SDS011;14241;49.260;10.496;2023-03-01T02:38:31;26.73;;;21.25;;
26600;SDS011;14241;49.260;10.496;2023-03-01T02:40:56;26.52;;;22.67;;
26600;SDS011;14241;49.260;10.496;2023-03-01T02:43:22;26.98;;;21.48;;
26600;SDS011;14241;49.260;10.496;2023-03-01T02:45:50;28.95;;;22.73;;
26600;SDS011;14241;49.260;10.496;2023-03-01T02:48:16;27.38;;;22.15;;
26600;SDS011;14241;49.260;10.496;2023-03-01T02:53:16;26.20;;;21.20;;
26600;SDS011;14241;49.260;10.496;2023-03-01T02:55:46;25.90;;;21.10;;
26600;SDS011;14241;49.260;10.496;2023-03-01T02:58:11;28.23;;;22.63;;
26600;SDS011;14241;49.260;10.496;2023-03-01T03:00:37;30.50;;;23.63;;
26600;SDS011;14241;49.260;10.496;2023-03-01T03:03:10;26.42;;;20.83;;
26600;SDS011;14241;49.260;10.496;2023-03-01T03:05:38;28.55;;;22.02;;
26600;SDS011;14241;49.260;10.496;2023-03-01T03:08:03;27.87;;;21.30;;
26600;SDS011;14241;49.260;10.496;2023-03-01T03:10:30;28.45;;;21.70;;
26600;SDS011;14241;49.260;10.496;2023-03-01T03:12:56;27.13;;;22.17;;
26600;SDS011;14241;49.260;10.496;2023-03-01T03:15:22;29.63;;;21.60;;
26600;SDS011;14241;49.260;10.496;2023-03-01T03:17:47;27.48;;;22.02;;
26600;SDS011;14241;49.260;10.496;2023-03-01T03:20:14;28.27;;;22.33;;
26600;SDS011;14241;49.260;10.496;2023-03-01T03:22:44;26.73;;;21.70;;
26600;SDS011;14241;49.260;10.496;2023-03-01T03:25:09;28.05;;;22.25;;
26600;SDS011;14241;49.260;10.496;2023-03-01T03:27:36;26.33;;;21.77;;
26600;SDS011;14241;49.260;10.496;2023-03-01T03:30:01;29.10;;;22.38;;
26600;SDS011;14241;49.260;10.496;2023-03-01T03:32:26;26.53;;;21.63;;
26600;SDS011;14241;49.260;10.496;2023-03-01T03:34:51;26.93;;;21.43;;
26600;SDS011;14241;49.260;10.496;2023-03-01T03:37:16;27.45;;;22.40;;
26600;SDS011;14241;49.260;10.496;2023-03-01T03:40:00;28.67;;;22.88;;
26600;SDS011;14241;49.260;10.496;2023-03-01T03:42:25;31.20;;;23.00;;
26600;SDS011;14241;49.260;10.496;2023-03-01T03:44:51;30.75;;;23.90;;
26600;SDS011;14241;49.260;10.496;2023-03-01T03:47:16;28.13;;;23.13;;
26600;SDS011;14241;49.260;10.496;2023-03-01T03:49:41;28.75;;;22.98;;
26600;SDS011;14241;49.260;10.496;2023-03-01T03:52:06;30.75;;;22.65;;
26600;SDS011;14241;49.260;10.496;2023-03-01T03:54:38;29.70;;;22.75;;
26600;SDS011;14241;49.260;10.496;2023-03-01T03:57:03;29.50;;;22.92;;
26600;SDS011;14241;49.260;10.496;2023-03-01T03:59:28;27.97;;;22.73;;
26600;SDS011;14241;49.260;10.496;2023-03-01T04:01:54;28.27;;;22.85;;
26600;SDS011;14241;49.260;10.496;2023-03-01T04:04:19;29.35;;;23.27;;
26600;SDS011;14241;49.260;10.496;2023-03-01T04:06:44;32.55;;;18.55;;
26600;SDS011;14241;49.260;10.496;2023-03-01T04:09:09;28.83;;;23.73;;
26600;SDS011;14241;49.260;10.496;2023-03-01T04:11:34;30.60;;;22.85;;
26600;SDS011;14241;49.260;10.496;2023-03-01T04:14:00;27.50;;;22.55;;
26600;SDS011;14241;49.260;10.496;2023-03-01T04:16:25;27.45;;;16.90;;
26600;SDS011;14241;49.260;10.496;2023-03-01T04:18:50;28.25;;;22.05;;
26600;SDS011;14241;49.260;10.496;2023-03-01T04:21:17;29.02;;;22.70;;
26600;SDS011;14241;49.260;10.496;2023-03-01T04:23:43;30.27;;;23.23;;
26600;SDS011;14241;49.260;10.496;2023-03-01T04:26:08;29.02;;;23.58;;
26600;SDS011;14241;49.260;10.496;2023-03-01T04:28:38;29.45;;;23.42;;
26600;SDS011;14241;49.260;10.496;2023-03-01T04:31:22;28.73;;;23.60;;
26600;SDS011;14241;49.260;10.496;2023-03-01T04:33:49;31.15;;;23.65;;
26600;SDS011;14241;49.260;10.496;2023-03-01T04:36:17;30.58;;;24.58;;
26600;SDS011;14241;49.260;10.496;2023-03-01T04:38:43;28.63;;;24.15;;
26600;SDS011;14241;49.260;10.496;2023-03-01T04:41:12;28.00;;;23.23;;
26600;SDS011;14241;49.260;10.496;2023-03-01T04:43:37;32.78;;;25.27;;
26600;SDS011;14241;49.260;10.496;2023-03-01T04:46:04;28.05;;;23.30;;
26600;SDS011;14241;49.260;10.496;2023-03-01T04:48:30;31.80;;;24.08;;
26600;SDS011;14241;49.260;10.496;2023-03-01T04:50:56;30.88;;;23.45;;
26600;SDS011;14241;49.260;10.496;2023-03-01T04:53:21;31.30;;;24.10;;
26600;SDS011;14241;49.260;10.496;2023-03-01T04:55:46;29.07;;;23.83;;
26600;SDS011;14241;49.260;10.496;2023-03-01T04:58:11;29.55;;;23.77;;
26600;SDS011;14241;49.260;10.496;2023-03-01T05:00:36;30.90;;;23.97;;
26600;SDS011;14241;49.260;10.496;2023-03-01T05:03:02;29.10;;;22.73;;
26600;SDS011;14241;49.260;10.496;2023-03-01T05:07:55;31.10;;;25.40;;
26600;SDS011;14241;49.260;10.496;2023-03-01T05:10:21;27.75;;;22.40;;
26600;SDS011;14241;49.260;10.496;2023-03-01T05:12:46;33.83;;;26.08;;
26600;SDS011;14241;49.260;10.496;2023-03-01T05:15:12;31.00;;;23.87;;
26600;SDS011;14241;49.260;10.496;2023-03-01T05:17:37;29.65;;;23.52;;
26600;SDS011;14241;49.260;10.496;2023-03-01T05:20:02;32.63;;;17.83;;
26600;SDS011;14241;49.260;10.496;2023-03-01T05:22:32;32.05;;;24.63;;
26600;SDS011;14241;49.260;10.496;2023-03-01T05:24:57;26.60;;;22.73;;
26600;SDS011;14241;49.260;10.496;2023-03-01T05:27:23;28.08;;;23.48;;
26600;SDS011;14241;49.260;10.496;2023-03-01T05:29:48;30.75;;;23.88;;
26600;SDS011;14241;49.260;10.496;2023-03-01T05:32:13;28.53;;;23.10;;
26600;SDS011;14241;49.260;10.496;2023-03-01T05:34:40;28.83;;;23.20;;
26600;SDS011;14241;49.260;10.496;2023-03-01T05:37:06;28.50;;;22.73;;
26600;SDS011;14241;49.260;10.496;2023-03-01T05:39:32;31.52;;;24.05;;
26600;SDS011;14241;49.260;10.496;2023-03-01T05:41:58;28.70;;;23.48;;
26600;SDS011;14241;49.260;10.496;2023-03-01T05:44:24;27.13;;;22.75;;
26600;SDS011;14241;49.260;10.496;2023-03-01T05:46:50;31.52;;;23.92;;
26600;SDS011;14241;49.260;10.496;2023-03-01T05:49:15;31.83;;;24.45;;
26600;SDS011;14241;49.260;10.496;2023-03-01T05:51:41;30.23;;;23.90;;
26600;SDS011;14241;49.260;10.496;2023-03-01T05:54:07;30.00;;;23.83;;
26600;SDS011;14241;49.260;10.496;2023-03-01T05:56:34;30.60;;;24.77;;
26600;SDS011;14241;49.260;10.496;2023-03-01T05:58:59;29.10;;;23.40;;
26600;SDS011;14241;49.260;10.496;2023-03-01T06:01:25;28.33;;;23.75;;
26600;SDS011;14241;49.260;10.496;2023-03-01T06:03:50;30.23;;;24.42;;
26600;SDS011;14241;49.260;10.496;2023-03-01T06:06:15;28.70;;;22.17;;
26600;SDS011;14241;49.260;10.496;2023-03-01T06:08:40;33.33;;;25.70;;
26600;SDS011;14241;49.260;10.496;2023-03-01T06:11:05;31.80;;;25.73;;
26600;SDS011;14241;49.260;10.496;2023-03-01T06:13:32;31.48;;;24.23;;
26600;SDS011;14241;49.260;10.496;2023-03-01T06:15:57;28.63;;;22.42;;
26600;SDS011;14241;49.260;10.496;2023-03-01T06:18:22;30.47;;;24.37;;
26600;SDS011;14241;49.260;10.496;2023-03-01T06:20:54;30.73;;;24.90;;
26600;SDS011;14241;49.260;10.496;2023-03-01T06:23:19;35.00;;;24.33;;
26600;SDS011;14241;49.260;10.496;2023-03-01T06:25:44;35.00;;;24.23;;
26600;SDS011;14241;49.260;10.496;2023-03-01T06:28:10;30.03;;;24.00;;
26600;SDS011;14241;49.260;10.496;2023-03-01T06:30:35;30.67;;;25.13;;
26600;SDS011;14241;49.260;10.496;2023-03-01T06:33:00;29.08;;;23.30;;
26600;SDS011;14241;49.260;10.496;2023-03-01T06:35:28;28.55;;;23.35;;
26600;SDS011;14241;49.260;10.496;2023-03-01T06:37:54;31.90;;;25.00;;
26600;SDS011;14241;49.260;10.496;2023-03-01T06:40:21;31.55;;;23.60;;
26600;SDS011;14241;49.260;10.496;2023-03-01T06:42:48;29.30;;;23.00;;
26600;SDS011;14241;49.260;10.496;2023-03-01T06:45:16;28.23;;;23.60;;
26600;SDS011;14241;49.260;10.496;2023-03-01T06:47:42;30.27;;;23.63;;
26600;SDS011;14241;49.260;10.496;2023-03-01T06:50:07;33.25;;;24.27;;
26600;SDS011;14241;49.260;10.496;2023-03-01T06:52:33;28.48;;;23.13;;
26600;SDS011;14241;49.260;10.496;2023-03-01T06:54:58;29.90;;;23.52;;
26600;SDS011;14241;49.260;10.496;2023-03-01T06:57:23;30.38;;;23.17;;
26600;SDS011;14241;49.260;10.496;2023-03-01T06:59:50;26.20;;;16.80;;
26600;SDS011;14241;49.260;10.496;2023-03-01T07:02:15;31.38;;;23.75;;
26600;SDS011;14241;49.260;10.496;2023-03-01T07:04:40;28.63;;;18.02;;
26600;SDS011;14241;49.260;10.496;2023-03-01T07:07:06;29.65;;;23.73;;
26600;SDS011;14241;49.260;10.496;2023-03-01T07:09:31;29.73;;;23.95;;
26600;SDS011;14241;49.260;10.496;2023-03-01T07:11:56;30.27;;;17.65;;
26600;SDS011;14241;49.260;10.496;2023-03-01T07:14:22;29.75;;;23.15;;
26600;SDS011;14241;49.260;10.496;2023-03-01T07:16:49;34.38;;;24.60;;
26600;SDS011;14241;49.260;10.496;2023-03-01T07:19:14;28.85;;;23.42;;
26600;SDS011;14241;49.260;10.496;2023-03-01T07:21:40;29.87;;;24.10;;
26600;SDS011;14241;49.260;10.496;2023-03-01T07:24:06;27.67;;;22.92;;
26600;SDS011;14241;49.260;10.496;2023-03-01T07:26:31;31.10;;;24.38;;
26600;SDS011;14241;49.260;10.496;2023-03-01T07:28:58;30.50;;;23.35;;
26600;SDS011;14241;49.260;10.496;2023-03-01T07:31:23;29.48;;;23.00;;
26600;SDS011;14241;49.260;10.496;2023-03-01T07:33:49;28.98;;;25.30;;
26600;SDS011;14241;49.260;10.496;2023-03-01T07:36:14;29.30;;;24.45;;
26600;SDS011;14241;49.260;10.496;2023-03-01T07:38:39;30.85;;;25.00;;
26600;SDS011;14241;49.260;10.496;2023-03-01T07:41:04;31.40;;;24.90;;
26600;SDS011;14241;49.260;10.496;2023-03-01T07:43:30;28.88;;;24.27;;
26600;SDS011;14241;49.260;10.496;2023-03-01T07:45:59;30.88;;;25.27;;
26600;SDS011;14241;49.260;10.496;2023-03-01T07:48:25;29.48;;;24.25;;
26600;SDS011;14241;49.260;10.496;2023-03-01T07:50:50;33.13;;;25.10;;
26600;SDS011;14241;49.260;10.496;2023-03-01T07:53:15;31.40;;;24.40;;
26600;SDS011;14241;49.260;10.496;2023-03-01T07:55:42;30.42;;;24.58;;
26600;SDS011;14241;49.260;10.496;2023-03-01T07:58:07;33.95;;;25.35;;
26600;SDS011;14241;49.260;10.496;2023-03-01T08:00:32;31.20;;;24.60;;
26600;SDS011;14241;49.260;10.496;2023-03-01T08:03:01;30.50;;;26.40;;
26600;SDS011;14241;49.260;10.496;2023-03-01T08:05:26;31.25;;;24.80;;
26600;SDS011;14241;49.260;10.496;2023-03-01T08:07:52;33.08;;;25.13;;
26600;SDS011;14241;49.260;10.496;2023-03-01T08:10:17;33.92;;;25.45;;
26600;SDS011;14241;49.260;10.496;2023-03-01T08:12:42;31.85;;;25.48;;
26600;SDS011;14241;49.260;10.496;2023-03-01T08:15:08;35.17;;;24.63;;
26600;SDS011;14241;49.260;10.496;2023-03-01T08:17:34;33.55;;;26.45;;
26600;SDS011;14241;49.260;10.496;2023-03-01T08:19:59;33.50;;;25.67;;
26600;SDS011;14241;49.260;10.496;2023-03-01T08:22:24;31.00;;;24.37;;
26600;SDS011;14241;49.260;10.496;2023-03-01T08:24:50;34.47;;;26.50;;
26600;SDS011;14241;49.260;10.496;2023-03-01T08:27:15;32.40;;;26.13;;
26600;SDS011;14241;49.260;10.496;2023-03-01T08:29:41;33.92;;;26.38;;
26600;SDS011;14241;49.260;10.496;2023-03-01T08:32:06;33.95;;;26.00;;
26600;SDS011;14241;49.260;10.496;2023-03-01T08:34:31;36.55;;;26.35;;
26600;SDS011;14241;49.260;10.496;2023-03-01T08:36:56;31.83;;;25.27;;
26600;SDS011;14241;49.260;10.496;2023-03-01T08:39:22;31.67;;;24.67;;
26600;SDS011;14241;49.260;10.496;2023-03-01T08:41:47;30.42;;;24.17;;
26600;SDS011;14241;49.260;10.496;2023-03-01T08:44:13;32.30;;;24.73;;
26600;SDS011;14241;49.260;10.496;2023-03-01T08:46:39;29.30;;;23.25;;
26600;SDS011;14241;49.260;10.496;2023-03-01T08:49:09;33.47;;;24.25;;
26600;SDS011;14241;49.260;10.496;2023-03-01T08:51:35;36.90;;;23.98;;
26600;SDS011;14241;49.260;10.496;2023-03-01T08:54:04;31.35;;;24.60;;
26600;SDS011;14241;49.260;10.496;2023-03-01T08:56:29;35.60;;;24.30;;
26600;SDS011;14241;49.260;10.496;2023-03-01T08:58:54;33.28;;;23.85;;
26600;SDS011;14241;49.260;10.496;2023-03-01T09:01:19;34.17;;;23.73;;
26600;SDS011;14241;49.260;10.496;2023-03-01T09:03:45;31.98;;;24.02;;
26600;SDS011;14241;49.260;10.496;2023-03-01T09:06:10;32.58;;;25.33;;
26600;SDS011;14241;49.260;10.496;2023-03-01T09:08:36;30.52;;;24.08;;
26600;SDS011;14241;49.260;10.496;2023-03-01T09:11:03;32.72;;;24.33;;
26600;SDS011;14241;49.260;10.496;2023-03-01T09:13:28;31.77;;;24.20;;
26600;SDS011;14241;49.260;10.496;2023-03-01T09:15:56;29.95;;;23.42;;
26600;SDS011;14241;49.260;10.496;2023-03-01T09:18:21;31.83;;;24.10;;
26600;SDS011;14241;49.260;10.496;2023-03-01T09:20:46;29.37;;;22.40;;
26600;SDS011;14241;49.260;10.496;2023-03-01T09:23:12;32.67;;;22.92;;
26600;SDS011;14241;49.260;10.496;2023-03-01T09:25:37;30.95;;;23.10;;
26600;SDS011;14241;49.260;10.496;2023-03-01T09:28:02;32.80;;;24.07;;
26600;SDS011;14241;49.260;10.496;2023-03-01T09:30:28;33.28;;;23.35;;
26600;SDS011;14241;49.260;10.496;2023-03-01T09:32:53;30.52;;;22.27;;
26600;SDS011;14241;49.260;10.496;2023-03-01T09:35:21;31.70;;;23.77;;
26600;SDS011;14241;49.260;10.496;2023-03-01T09:37:47;30.63;;;23.80;;
26600;SDS011;14241;49.260;10.496;2023-03-01T09:40:16;30.42;;;23.00;;
26600;SDS011;14241;49.260;10.496;2023-03-01T09:42:51;31.63;;;23.20;;
26600;SDS011;14241;49.260;10.496;2023-03-01T09:45:25;32.63;;;23.20;;
26600;SDS011;14241;49.260;10.496;2023-03-01T09:47:51;30.55;;;22.05;;
26600;SDS011;14241;49.260;10.496;2023-03-01T09:50:17;29.58;;;22.85;;
26600;SDS011;14241;49.260;10.496;2023-03-01T09:55:15;28.75;;;22.48;;
26600;SDS011;14241;49.260;10.496;2023-03-01T09:57:49;31.90;;;22.77;;
26600;SDS011;14241;49.260;10.496;2023-03-01T10:02:51;26.67;;;20.73;;
26600;SDS011;14241;49.260;10.496;2023-03-01T10:10:34;29.95;;;20.80;;
26600;SDS011;14241;49.260;10.496;2023-03-01T10:13:10;30.20;;;20.35;;
26600;SDS011;14241;49.260;10.496;2023-03-01T10:15:37;29.65;;;21.23;;
26600;SDS011;14241;49.260;10.496;2023-03-01T10:18:05;30.63;;;21.73;;
26600;SDS011;14241;49.260;10.496;2023-03-01T10:23:17;34.03;;;23.13;;
26600;SDS011;14241;49.260;10.496;2023-03-01T10:28:10;29.97;;;21.23;;
26600;SDS011;14241;49.260;10.496;2023-03-01T10:30:40;33.55;;;21.77;;
26600;SDS011;14241;49.260;10.496;2023-03-01T10:33:17;29.67;;;20.48;;
26600;SDS011;14241;49.260;10.496;2023-03-01T10:35:44;27.33;;;21.27;;
26600;SDS011;14241;49.260;10.496;2023-03-01T10:38:11;26.48;;;20.65;;
26600;SDS011;14241;49.260;10.496;2023-03-01T10:40:54;29.02;;;21.55;;
26600;SDS011;14241;49.260;10.496;2023-03-01T10:43:22;28.08;;;20.02;;
26600;SDS011;14241;49.260;10.496;2023-03-01T10:45:47;26.55;;;20.38;;
26600;SDS011;14241;49.260;10.496;2023-03-01T10:48:23;30.88;;;20.75;;
26600;SDS011;14241;49.260;10.496;2023-03-01T10:51:04;31.58;;;21.17;;
26600;SDS011;14241;49.260;10.496;2023-03-01T10:53:43;27.70;;;19.40;;
26600;SDS011;14241;49.260;10.496;2023-03-01T10:56:13;27.05;;;20.90;;
26600;SDS011;14241;49.260;10.496;2023-03-01T10:59:00;27.77;;;19.33;;
26600;SDS011;14241;49.260;10.496;2023-03-01T11:01:25;30.83;;;20.27;;
26600;SDS011;14241;49.260;10.496;2023-03-01T11:04:08;25.73;;;18.98;;
26600;SDS011;14241;49.260;10.496;2023-03-01T11:06:34;24.75;;;18.33;;
26600;SDS011;14241;49.260;10.496;2023-03-01T11:09:17;29.17;;;19.10;;
26600;SDS011;14241;49.260;10.496;2023-03-01T11:11:44;28.02;;;19.52;;
26600;SDS011;14241;49.260;10.496;2023-03-01T11:14:14;27.33;;;19.58;;
26600;SDS011;14241;49.260;10.496;2023-03-01T11:16:41;27.02;;;20.00;;
26600;SDS011;14241;49.260;10.496;2023-03-01T11:21:32;30.25;;;19.85;;
26600;SDS011;14241;49.260;10.496;2023-03-01T11:23:59;27.88;;;19.40;;
26600;SDS011;14241;49.260;10.496;2023-03-01T11:26:25;29.13;;;19.88;;
26600;SDS011;14241;49.260;10.496;2023-03-01T11:28:54;27.38;;;18.52;;
26600;SDS011;14241;49.260;10.496;2023-03-01T11:31:22;25.60;;;18.40;;
26600;SDS011;14241;49.260;10.496;2023-03-01T11:36:42;23.30;;;17.95;;
26600;SDS011;14241;49.260;10.496;2023-03-01T11:39:28;29.40;;;19.02;;
26600;SDS011;14241;49.260;10.496;2023-03-01T11:42:06;28.58;;;18.63;;
26600;SDS011;14241;49.260;10.496;2023-03-01T11:44:35;26.00;;;18.90;;
26600;SDS011;14241;49.260;10.496;2023-03-01T11:52:08;27.73;;;18.40;;
26600;SDS011;14241;49.260;10.496;2023-03-01T12:07:54;27.13;;;16.88;;
26600;SDS011;14241;49.260;10.496;2023-03-01T12:10:29;26.10;;;18.42;;
26600;SDS011;14241;49.260;10.496;2023-03-01T12:38:42;22.17;;;15.55;;
26600;SDS011;14241;49.260;10.496;2023-03-01T12:41:20;21.90;;;17.40;;
26600;SDS011;14241;49.260;10.496;2023-03-01T12:51:20;22.13;;;16.63;;
26600;SDS011;14241;49.260;10.496;2023-03-01T12:53:47;23.75;;;16.98;;
26600;SDS011;14241;49.260;10.496;2023-03-01T12:56:21;25.60;;;16.30;;
26600;SDS011;14241;49.260;10.496;2023-03-01T13:11:40;23.15;;;15.57;;
26600;SDS011;14241;49.260;10.496;2023-03-01T13:16:47;23.92;;;14.63;;
26600;SDS011;14241;49.260;10.496;2023-03-01T13:19:17;22.77;;;15.38;;
26600;SDS011;14241;49.260;10.496;2023-03-01T13:21:44;23.15;;;15.38;;
26600;SDS011;14241;49.260;10.496;2023-03-01T13:27:24;21.30;;;15.80;;
26600;SDS011;14241;49.260;10.496;2023-03-01T13:29:52;20.38;;;15.20;;
26600;SDS011;14241;49.260;10.496;2023-03-01T13:32:21;21.83;;;15.32;;
26600;SDS011;14241;49.260;10.496;2023-03-01T13:34:48;23.38;;;14.82;;
26600;SDS011;14241;49.260;10.496;2023-03-01T13:37:24;22.35;;;15.10;;
26600;SDS011;14241;49.260;10.496;2023-03-01T13:39:51;23.73;;;16.23;;
26600;SDS011;14241;49.260;10.496;2023-03-01T13:42:33;24.77;;;15.85;;
26600;SDS011;14241;49.260;10.496;2023-03-01T13:44:59;19.77;;;13.93;;
26600;SDS011;14241;49.260;10.496;2023-03-01T13:47:25;51.38;;;18.25;;
26600;SDS011;14241;49.260;10.496;2023-03-01T13:49:53;23.80;;;15.35;;
26600;SDS011;14241;49.260;10.496;2023-03-01T13:54:57;19.25;;;14.15;;
26600;SDS011;14241;49.260;10.496;2023-03-01T13:57:24;19.77;;;14.77;;
26600;SDS011;14241;49.260;10.496;2023-03-01T13:59:51;24.70;;;14.52;;
26600;SDS011;14241;49.260;10.496;2023-03-01T14:02:16;19.80;;;14.05;;
26600;SDS011;14241;49.260;10.496;2023-03-01T14:04:41;20.40;;;14.43;;
26600;SDS011;14241;49.260;10.496;2023-03-01T14:07:10;28.15;;;13.75;;
26600;SDS011;14241;49.260;10.496;2023-03-01T14:09:37;22.10;;;14.43;;
26600;SDS011;14241;49.260;10.496;2023-03-01T14:14:55;20.25;;;14.32;;
26600;SDS011;14241;49.260;10.496;2023-03-01T14:19:54;21.50;;;13.75;;
26600;SDS011;14241;49.260;10.496;2023-03-01T14:22:24;20.67;;;14.02;;
26600;SDS011;14241;49.260;10.496;2023-03-01T14:24:51;37.13;;;14.57;;
26600;SDS011;14241;49.260;10.496;2023-03-01T14:27:16;22.00;;;13.77;;
26600;SDS011;14241;49.260;10.496;2023-03-01T14:29:42;19.58;;;13.88;;
26600;SDS011;14241;49.260;10.496;2023-03-01T14:32:21;18.70;;;14.00;;
26600;SDS011;14241;49.260;10.496;2023-03-01T14:34:47;18.92;;;13.68;;
26600;SDS011;14241;49.260;10.496;2023-03-01T14:37:26;18.48;;;13.13;;
26600;SDS011;14241;49.260;10.496;2023-03-01T14:39:52;19.60;;;14.15;;
26600;SDS011;14241;49.260;10.496;2023-03-01T14:42:18;19.20;;;13.23;;
26600;SDS011;14241;49.260;10.496;2023-03-01T14:44:45;17.55;;;12.80;;
26600;SDS011;14241;49.260;10.496;2023-03-01T14:47:14;22.52;;;13.82;;
26600;SDS011;14241;49.260;10.496;2023-03-01T14:49:40;21.13;;;14.02;;
26600;SDS011;14241;49.260;10.496;2023-03-01T14:52:22;22.38;;;15.40;;
26600;SDS011;14241;49.260;10.496;2023-03-01T14:54:50;18.10;;;12.85;;
26600;SDS011;14241;49.260;10.496;2023-03-01T14:57:18;19.45;;;14.40;;
26600;SDS011;14241;49.260;10.496;2023-03-01T14:59:43;21.38;;;14.43;;
26600;SDS011;14241;49.260;10.496;2023-03-01T15:02:11;19.08;;;13.30;;
26600;SDS011;14241;49.260;10.496;2023-03-01T15:04:42;18.52;;;13.38;;
26600;SDS011;14241;49.260;10.496;2023-03-01T15:07:09;19.33;;;13.88;;
26600;SDS011;14241;49.260;10.496;2023-03-01T15:09:36;21.77;;;13.82;;
26600;SDS011;14241;49.260;10.496;2023-03-01T15:12:23;60.63;;;16.07;;
26600;SDS011;14241;49.260;10.496;2023-03-01T15:14:47;21.08;;;13.23;;
26600;SDS011;14241;49.260;10.496;2023-03-01T15:17:26;22.30;;;13.88;;
26600;SDS011;14241;49.260;10.496;2023-03-01T15:19:54;21.10;;;13.70;;
26600;SDS011;14241;49.260;10.496;2023-03-01T15:22:20;20.27;;;13.80;;
26600;SDS011;14241;49.260;10.496;2023-03-01T15:24:46;21.95;;;14.23;;
26600;SDS011;14241;49.260;10.496;2023-03-01T15:27:14;19.30;;;12.75;;
26600;SDS011;14241;49.260;10.496;2023-03-01T15:29:40;17.17;;;13.02;;
26600;SDS011;14241;49.260;10.496;2023-03-01T15:34:52;18.45;;;12.40;;
26600;SDS011;14241;49.260;10.496;2023-03-01T15:40:25;19.20;;;12.60;;
26600;SDS011;14241;49.260;10.496;2023-03-01T15:42:57;18.42;;;12.63;;
26600;SDS011;14241;49.260;10.496;2023-03-01T15:45:24;23.70;;;12.35;;
26600;SDS011;14241;49.260;10.496;2023-03-01T15:47:52;19.25;;;13.10;;
26600;SDS011;14241;49.260;10.496;2023-03-01T15:50:22;19.55;;;13.10;;
26600;SDS011;14241;49.260;10.496;2023-03-01T15:52:48;18.50;;;12.90;;
26600;SDS011;14241;49.260;10.496;2023-03-01T15:55:18;18.77;;;13.07;;
26600;SDS011;14241;49.260;10.496;2023-03-01T15:57:44;20.02;;;13.05;;
26600;SDS011;14241;49.260;10.496;2023-03-01T16:00:10;18.15;;;13.35;;
26600;SDS011;14241;49.260;10.496;2023-03-01T16:02:40;18.83;;;13.35;;
26600;SDS011;14241;49.260;10.496;2023-03-01T16:05:10;20.45;;;13.77;;